sensor_id;sensor_type;location;lat;lon;timestamp;P1;durP1;ratioP1;P2;durP2;ratioP2
74967;SDS011;63523;51.880;12.630;2023-07-31T00:01:51;5.40;;;2.10;;
74967;SDS011;63523;51.880;12.630;2023-07-31T00:04:16;6.37;;;1.50;;
74967;SDS011;63523;51.880;12.630;2023-07-31T00:06:41;5.17;;;1.83;;
74967;SDS011;63523;51.880;12.630;2023-07-31T00:09:07;5.87;;;2.20;;
74967;SDS011;63523;51.880;12.630;2023-07-31T00:11:32;7.07;;;2.00;;
74967;SDS011;63523;51.880;12.630;2023-07-31T00:13:57;6.13;;;2.23;;
74967;SDS011;63523;51.880;12.630;2023-07-31T00:16:23;4.20;;;1.77;;
74967;SDS011;63523;51.880;12.630;2023-07-31T00:18:48;6.00;;;1.80;;
74967;SDS011;63523;51.880;12.630;2023-07-31T00:21:13;4.90;;;1.60;;
74967;SDS011;63523;51.880;12.630;2023-07-31T00:23:39;7.30;;;1.50;;
74967;SDS011;63523;51.880;12.630;2023-07-31T00:26:04;4.73;;;1.60;;
74967;SDS011;63523;51.880;12.630;2023-07-31T00:28:29;5.17;;;1.50;;
74967;SDS011;63523;51.880;12.630;2023-07-31T00:30:55;4.47;;;1.27;;
74967;SDS011;63523;51.880;12.630;2023-07-31T00:33:20;4.88;;;1.33;;
74967;SDS011;63523;51.880;12.630;2023-07-31T00:35:45;3.97;;;1.30;;
74967;SDS011;63523;51.880;12.630;2023-07-31T00:38:11;6.13;;;1.40;;
74967;SDS011;63523;51.880;12.630;2023-07-31T00:40:36;4.23;;;1.40;;
74967;SDS011;63523;51.880;12.630;2023-07-31T00:43:02;5.10;;;1.40;;
74967;SDS011;63523;51.880;12.630;2023-07-31T00:45:28;6.43;;;1.43;;
74967;SDS011;63523;51.880;12.630;2023-07-31T00:47:53;6.35;;;1.33;;
74967;SDS011;63523;51.880;12.630;2023-07-31T00:50:19;3.80;;;1.20;;
74967;SDS011;63523;51.880;12.630;2023-07-31T00:52:44;4.90;;;1.10;;
74967;SDS011;63523;51.880;12.630;2023-07-31T00:55:09;5.10;;;1.23;;
74967;SDS011;63523;51.880;12.630;2023-07-31T00:57:35;3.67;;;1.00;;
74967;SDS011;63523;51.880;12.630;2023-07-31T01:00:02;5.27;;;1.17;;
74967;SDS011;63523;51.880;12.630;2023-07-31T01:02:28;3.70;;;1.08;;
74967;SDS011;63523;51.880;12.630;2023-07-31T01:04:53;4.35;;;0.90;;
74967;SDS011;63523;51.880;12.630;2023-07-31T01:07:24;4.07;;;0.80;;
74967;SDS011;63523;51.880;12.630;2023-07-31T01:10:08;5.45;;;0.80;;
74967;SDS011;63523;51.880;12.630;2023-07-31T01:12:45;5.27;;;0.80;;
74967;SDS011;63523;51.880;12.630;2023-07-31T01:15:12;4.18;;;1.10;;
74967;SDS011;63523;51.880;12.630;2023-07-31T01:17:40;5.03;;;0.80;;
74967;SDS011;63523;51.880;12.630;2023-07-31T01:20:22;4.22;;;1.08;;
74967;SDS011;63523;51.880;12.630;2023-07-31T01:28:32;5.00;;;0.90;;
74967;SDS011;63523;51.880;12.630;2023-07-31T01:31:22;3.75;;;0.70;;
74967;SDS011;63523;51.880;12.630;2023-07-31T01:33:49;4.47;;;0.68;;
74967;SDS011;63523;51.880;12.630;2023-07-31T01:36:17;5.78;;;1.02;;
74967;SDS011;63523;51.880;12.630;2023-07-31T01:38:43;4.30;;;0.70;;
74967;SDS011;63523;51.880;12.630;2023-07-31T01:41:08;4.33;;;0.93;;
74967;SDS011;63523;51.880;12.630;2023-07-31T01:43:33;5.07;;;1.00;;
74967;SDS011;63523;51.880;12.630;2023-07-31T01:45:58;4.83;;;0.60;;
74967;SDS011;63523;51.880;12.630;2023-07-31T01:48:24;4.40;;;0.80;;
74967;SDS011;63523;51.880;12.630;2023-07-31T01:50:49;3.27;;;0.80;;
74967;SDS011;63523;51.880;12.630;2023-07-31T01:53:14;5.18;;;0.75;;
74967;SDS011;63523;51.880;12.630;2023-07-31T01:55:40;4.70;;;1.03;;
74967;SDS011;63523;51.880;12.630;2023-07-31T01:58:05;8.07;;;0.93;;
74967;SDS011;63523;51.880;12.630;2023-07-31T02:00:30;4.73;;;0.80;;
74967;SDS011;63523;51.880;12.630;2023-07-31T02:02:56;4.27;;;0.90;;
74967;SDS011;63523;51.880;12.630;2023-07-31T02:05:21;4.40;;;0.80;;
74967;SDS011;63523;51.880;12.630;2023-07-31T02:07:46;4.50;;;0.90;;
74967;SDS011;63523;51.880;12.630;2023-07-31T02:10:12;4.45;;;0.80;;
74967;SDS011;63523;51.880;12.630;2023-07-31T02:12:37;3.73;;;0.73;;
74967;SDS011;63523;51.880;12.630;2023-07-31T02:15:03;5.07;;;0.80;;
74967;SDS011;63523;51.880;12.630;2023-07-31T02:17:28;6.55;;;1.05;;
74967;SDS011;63523;51.880;12.630;2023-07-31T02:19:54;3.93;;;1.00;;
74967;SDS011;63523;51.880;12.630;2023-07-31T02:22:20;5.33;;;0.90;;
74967;SDS011;63523;51.880;12.630;2023-07-31T02:24:45;4.10;;;0.75;;
74967;SDS011;63523;51.880;12.630;2023-07-31T02:27:10;4.13;;;0.80;;
74967;SDS011;63523;51.880;12.630;2023-07-31T02:29:36;6.47;;;1.00;;
74967;SDS011;63523;51.880;12.630;2023-07-31T02:32:01;4.50;;;1.10;;
74967;SDS011;63523;51.880;12.630;2023-07-31T02:34:26;4.87;;;1.10;;
74967;SDS011;63523;51.880;12.630;2023-07-31T02:36:52;4.73;;;0.73;;
74967;SDS011;63523;51.880;12.630;2023-07-31T02:39:17;3.42;;;0.80;;
74967;SDS011;63523;51.880;12.630;2023-07-31T02:41:42;6.23;;;1.10;;
74967;SDS011;63523;51.880;12.630;2023-07-31T02:44:08;3.73;;;0.70;;
74967;SDS011;63523;51.880;12.630;2023-07-31T02:46:33;5.53;;;1.20;;
74967;SDS011;63523;51.880;12.630;2023-07-31T02:48:58;3.53;;;1.00;;
74967;SDS011;63523;51.880;12.630;2023-07-31T02:51:24;4.03;;;1.00;;
74967;SDS011;63523;51.880;12.630;2023-07-31T02:53:49;5.30;;;0.95;;
74967;SDS011;63523;51.880;12.630;2023-07-31T02:56:15;4.57;;;0.80;;
74967;SDS011;63523;51.880;12.630;2023-07-31T02:58:40;3.40;;;0.60;;
74967;SDS011;63523;51.880;12.630;2023-07-31T03:01:05;5.30;;;0.80;;
74967;SDS011;63523;51.880;12.630;2023-07-31T03:03:31;4.53;;;0.70;;
74967;SDS011;63523;51.880;12.630;2023-07-31T03:05:56;3.93;;;0.90;;
74967;SDS011;63523;51.880;12.630;2023-07-31T03:08:21;5.77;;;0.90;;
74967;SDS011;63523;51.880;12.630;2023-07-31T03:10:47;5.67;;;0.80;;
74967;SDS011;63523;51.880;12.630;2023-07-31T03:13:12;4.93;;;0.77;;
74967;SDS011;63523;51.880;12.630;2023-07-31T03:15:37;4.30;;;0.80;;
74967;SDS011;63523;51.880;12.630;2023-07-31T03:18:02;3.40;;;0.70;;
74967;SDS011;63523;51.880;12.630;2023-07-31T03:20:28;6.10;;;1.00;;
74967;SDS011;63523;51.880;12.630;2023-07-31T03:22:53;4.07;;;1.00;;
74967;SDS011;63523;51.880;12.630;2023-07-31T03:25:18;3.97;;;0.80;;
74967;SDS011;63523;51.880;12.630;2023-07-31T03:27:44;3.60;;;0.73;;
74967;SDS011;63523;51.880;12.630;2023-07-31T03:30:09;5.27;;;1.00;;
74967;SDS011;63523;51.880;12.630;2023-07-31T03:32:35;4.53;;;1.00;;
74967;SDS011;63523;51.880;12.630;2023-07-31T03:35:00;4.77;;;0.83;;
74967;SDS011;63523;51.880;12.630;2023-07-31T03:37:25;3.93;;;0.80;;
74967;SDS011;63523;51.880;12.630;2023-07-31T03:39:51;4.13;;;0.80;;
74967;SDS011;63523;51.880;12.630;2023-07-31T03:42:16;4.23;;;0.77;;
74967;SDS011;63523;51.880;12.630;2023-07-31T03:44:42;3.70;;;0.80;;
74967;SDS011;63523;51.880;12.630;2023-07-31T03:47:07;3.73;;;0.83;;
74967;SDS011;63523;51.880;12.630;2023-07-31T03:49:32;3.43;;;0.73;;
74967;SDS011;63523;51.880;12.630;2023-07-31T03:51:58;5.60;;;0.67;;
74967;SDS011;63523;51.880;12.630;2023-07-31T03:54:23;3.65;;;0.80;;
74967;SDS011;63523;51.880;12.630;2023-07-31T03:56:49;3.63;;;0.73;;
74967;SDS011;63523;51.880;12.630;2023-07-31T03:59:14;3.63;;;0.60;;
74967;SDS011;63523;51.880;12.630;2023-07-31T04:01:39;8.30;;;0.97;;
74967;SDS011;63523;51.880;12.630;2023-07-31T04:04:05;4.83;;;0.90;;
74967;SDS011;63523;51.880;12.630;2023-07-31T04:06:30;4.18;;;0.70;;
74967;SDS011;63523;51.880;12.630;2023-07-31T04:08:56;4.57;;;0.73;;
74967;SDS011;63523;51.880;12.630;2023-07-31T04:11:21;3.23;;;0.70;;
74967;SDS011;63523;51.880;12.630;2023-07-31T04:13:46;3.97;;;0.90;;
74967;SDS011;63523;51.880;12.630;2023-07-31T04:16:12;3.93;;;0.70;;
74967;SDS011;63523;51.880;12.630;2023-07-31T04:18:37;3.17;;;0.70;;
74967;SDS011;63523;51.880;12.630;2023-07-31T04:21:03;5.43;;;0.93;;
74967;SDS011;63523;51.880;12.630;2023-07-31T04:23:28;5.17;;;1.10;;
74967;SDS011;63523;51.880;12.630;2023-07-31T04:25:53;5.07;;;0.90;;
74967;SDS011;63523;51.880;12.630;2023-07-31T04:28:19;5.00;;;0.90;;
74967;SDS011;63523;51.880;12.630;2023-07-31T04:30:44;5.78;;;0.90;;
74967;SDS011;63523;51.880;12.630;2023-07-31T04:33:09;4.80;;;0.90;;
74967;SDS011;63523;51.880;12.630;2023-07-31T04:35:35;6.83;;;1.07;;
74967;SDS011;63523;51.880;12.630;2023-07-31T04:38:00;4.97;;;1.20;;
74967;SDS011;63523;51.880;12.630;2023-07-31T04:40:25;4.80;;;1.10;;
74967;SDS011;63523;51.880;12.630;2023-07-31T04:42:51;4.30;;;1.07;;
74967;SDS011;63523;51.880;12.630;2023-07-31T04:45:16;4.07;;;1.00;;
74967;SDS011;63523;51.880;12.630;2023-07-31T04:47:42;4.43;;;0.80;;
74967;SDS011;63523;51.880;12.630;2023-07-31T04:50:07;4.80;;;1.03;;
74967;SDS011;63523;51.880;12.630;2023-07-31T04:52:33;7.25;;;1.40;;
74967;SDS011;63523;51.880;12.630;2023-07-31T04:54:58;5.53;;;1.00;;
74967;SDS011;63523;51.880;12.630;2023-07-31T04:57:24;6.37;;;1.20;;
74967;SDS011;63523;51.880;12.630;2023-07-31T04:59:49;3.93;;;0.90;;
74967;SDS011;63523;51.880;12.630;2023-07-31T05:02:14;4.93;;;0.97;;
74967;SDS011;63523;51.880;12.630;2023-07-31T05:04:40;6.03;;;1.10;;
74967;SDS011;63523;51.880;12.630;2023-07-31T05:07:05;5.17;;;1.00;;
74967;SDS011;63523;51.880;12.630;2023-07-31T05:09:30;4.37;;;1.03;;
74967;SDS011;63523;51.880;12.630;2023-07-31T05:11:56;3.27;;;0.93;;
74967;SDS011;63523;51.880;12.630;2023-07-31T05:14:21;3.93;;;0.93;;
74967;SDS011;63523;51.880;12.630;2023-07-31T05:16:46;4.73;;;1.10;;
74967;SDS011;63523;51.880;12.630;2023-07-31T05:19:12;3.92;;;1.10;;
74967;SDS011;63523;51.880;12.630;2023-07-31T05:21:37;5.43;;;1.47;;
74967;SDS011;63523;51.880;12.630;2023-07-31T05:24:03;4.43;;;1.20;;
74967;SDS011;63523;51.880;12.630;2023-07-31T05:26:28;3.50;;;1.10;;
74967;SDS011;63523;51.880;12.630;2023-07-31T05:28:53;6.07;;;1.23;;
74967;SDS011;63523;51.880;12.630;2023-07-31T05:31:19;3.77;;;1.17;;
74967;SDS011;63523;51.880;12.630;2023-07-31T05:33:45;5.70;;;1.50;;
74967;SDS011;63523;51.880;12.630;2023-07-31T05:36:11;5.38;;;1.13;;
74967;SDS011;63523;51.880;12.630;2023-07-31T05:38:36;5.03;;;1.17;;
74967;SDS011;63523;51.880;12.630;2023-07-31T05:41:01;5.10;;;1.40;;
74967;SDS011;63523;51.880;12.630;2023-07-31T05:46:24;4.97;;;1.50;;
74967;SDS011;63523;51.880;12.630;2023-07-31T05:48:52;5.65;;;1.42;;
74967;SDS011;63523;51.880;12.630;2023-07-31T05:51:25;5.60;;;1.33;;
74967;SDS011;63523;51.880;12.630;2023-07-31T05:53:53;5.50;;;1.40;;
74967;SDS011;63523;51.880;12.630;2023-07-31T05:56:25;5.97;;;1.30;;
74967;SDS011;63523;51.880;12.630;2023-07-31T05:59:00;7.13;;;1.33;;
74967;SDS011;63523;51.880;12.630;2023-07-31T06:01:26;4.27;;;1.27;;
74967;SDS011;63523;51.880;12.630;2023-07-31T06:03:51;4.00;;;1.30;;
74967;SDS011;63523;51.880;12.630;2023-07-31T06:06:28;4.77;;;1.37;;
74967;SDS011;63523;51.880;12.630;2023-07-31T06:09:08;3.78;;;1.27;;
74967;SDS011;63523;51.880;12.630;2023-07-31T06:11:33;4.57;;;1.40;;
74967;SDS011;63523;51.880;12.630;2023-07-31T06:13:58;4.87;;;1.80;;
74967;SDS011;63523;51.880;12.630;2023-07-31T06:16:24;5.25;;;1.40;;
74967;SDS011;63523;51.880;12.630;2023-07-31T06:18:50;4.77;;;1.23;;
74967;SDS011;63523;51.880;12.630;2023-07-31T06:21:15;6.13;;;1.10;;
74967;SDS011;63523;51.880;12.630;2023-07-31T06:23:41;5.37;;;1.20;;
74967;SDS011;63523;51.880;12.630;2023-07-31T06:26:06;4.07;;;1.50;;
74967;SDS011;63523;51.880;12.630;2023-07-31T06:28:32;5.90;;;1.23;;
74967;SDS011;63523;51.880;12.630;2023-07-31T06:30:57;4.37;;;1.53;;
74967;SDS011;63523;51.880;12.630;2023-07-31T06:33:23;5.20;;;1.60;;
74967;SDS011;63523;51.880;12.630;2023-07-31T06:35:49;6.28;;;1.50;;
74967;SDS011;63523;51.880;12.630;2023-07-31T06:38:14;5.23;;;1.50;;
74967;SDS011;63523;51.880;12.630;2023-07-31T06:40:39;7.47;;;1.33;;
74967;SDS011;63523;51.880;12.630;2023-07-31T06:43:05;7.17;;;1.50;;
74967;SDS011;63523;51.880;12.630;2023-07-31T06:45:34;5.13;;;1.50;;
74967;SDS011;63523;51.880;12.630;2023-07-31T06:48:00;5.40;;;1.33;;
74967;SDS011;63523;51.880;12.630;2023-07-31T06:50:27;6.07;;;1.40;;
74967;SDS011;63523;51.880;12.630;2023-07-31T06:52:53;6.85;;;1.67;;
74967;SDS011;63523;51.880;12.630;2023-07-31T06:55:19;6.10;;;1.50;;
74967;SDS011;63523;51.880;12.630;2023-07-31T06:57:46;6.22;;;1.60;;
74967;SDS011;63523;51.880;12.630;2023-07-31T07:00:12;4.90;;;1.25;;
74967;SDS011;63523;51.880;12.630;2023-07-31T07:02:38;6.07;;;1.40;;
74967;SDS011;63523;51.880;12.630;2023-07-31T07:05:03;6.50;;;1.60;;
74967;SDS011;63523;51.880;12.630;2023-07-31T07:07:29;5.40;;;1.40;;
74967;SDS011;63523;51.880;12.630;2023-07-31T07:09:54;5.03;;;1.35;;
74967;SDS011;63523;51.880;12.630;2023-07-31T07:12:19;5.53;;;1.80;;
74967;SDS011;63523;51.880;12.630;2023-07-31T07:14:45;5.27;;;1.37;;
74967;SDS011;63523;51.880;12.630;2023-07-31T07:17:13;6.43;;;1.50;;
74967;SDS011;63523;51.880;12.630;2023-07-31T07:19:41;6.37;;;1.70;;
74967;SDS011;63523;51.880;12.630;2023-07-31T07:22:07;4.38;;;1.33;;
74967;SDS011;63523;51.880;12.630;2023-07-31T07:24:32;4.20;;;1.40;;
74967;SDS011;63523;51.880;12.630;2023-07-31T07:26:58;4.63;;;1.57;;
74967;SDS011;63523;51.880;12.630;2023-07-31T07:29:23;5.90;;;1.70;;
74967;SDS011;63523;51.880;12.630;2023-07-31T07:31:48;6.47;;;1.57;;
74967;SDS011;63523;51.880;12.630;2023-07-31T07:34:13;6.20;;;1.60;;
74967;SDS011;63523;51.880;12.630;2023-07-31T07:36:39;4.67;;;1.10;;
74967;SDS011;63523;51.880;12.630;2023-07-31T07:39:04;4.00;;;1.30;;
74967;SDS011;63523;51.880;12.630;2023-07-31T07:41:30;4.70;;;1.40;;
74967;SDS011;63523;51.880;12.630;2023-07-31T07:43:55;7.03;;;1.50;;
74967;SDS011;63523;51.880;12.630;2023-07-31T07:46:20;5.77;;;1.60;;
74967;SDS011;63523;51.880;12.630;2023-07-31T07:48:46;4.50;;;1.30;;
74967;SDS011;63523;51.880;12.630;2023-07-31T07:51:11;4.73;;;1.30;;
74967;SDS011;63523;51.880;12.630;2023-07-31T07:53:36;5.60;;;1.70;;
74967;SDS011;63523;51.880;12.630;2023-07-31T07:56:02;5.50;;;1.60;;
74967;SDS011;63523;51.880;12.630;2023-07-31T07:58:27;5.27;;;1.40;;
74967;SDS011;63523;51.880;12.630;2023-07-31T08:00:52;4.70;;;1.40;;
74967;SDS011;63523;51.880;12.630;2023-07-31T08:03:18;3.63;;;1.30;;
74967;SDS011;63523;51.880;12.630;2023-07-31T08:05:43;5.30;;;1.40;;
74967;SDS011;63523;51.880;12.630;2023-07-31T08:08:13;7.07;;;1.60;;
74967;SDS011;63523;51.880;12.630;2023-07-31T08:10:40;5.95;;;1.52;;
74967;SDS011;63523;51.880;12.630;2023-07-31T08:13:05;4.87;;;1.20;;
74967;SDS011;63523;51.880;12.630;2023-07-31T08:15:30;5.57;;;1.20;;
74967;SDS011;63523;51.880;12.630;2023-07-31T08:17:56;4.40;;;1.30;;
74967;SDS011;63523;51.880;12.630;2023-07-31T08:20:21;5.53;;;1.40;;
74967;SDS011;63523;51.880;12.630;2023-07-31T08:22:46;6.05;;;1.58;;
74967;SDS011;63523;51.880;12.630;2023-07-31T08:25:11;4.77;;;1.30;;
74967;SDS011;63523;51.880;12.630;2023-07-31T08:27:37;4.10;;;1.30;;
74967;SDS011;63523;51.880;12.630;2023-07-31T08:30:02;4.40;;;1.40;;
74967;SDS011;63523;51.880;12.630;2023-07-31T08:32:28;5.47;;;1.27;;
74967;SDS011;63523;51.880;12.630;2023-07-31T08:34:53;4.00;;;1.17;;
74967;SDS011;63523;51.880;12.630;2023-07-31T08:37:18;5.20;;;1.30;;
74967;SDS011;63523;51.880;12.630;2023-07-31T08:39:44;5.10;;;1.43;;
74967;SDS011;63523;51.880;12.630;2023-07-31T08:42:09;5.67;;;1.23;;
74967;SDS011;63523;51.880;12.630;2023-07-31T08:44:34;5.80;;;1.43;;
74967;SDS011;63523;51.880;12.630;2023-07-31T08:47:01;4.07;;;1.10;;
74967;SDS011;63523;51.880;12.630;2023-07-31T08:49:27;4.27;;;1.10;;
74967;SDS011;63523;51.880;12.630;2023-07-31T08:51:53;5.05;;;1.35;;
74967;SDS011;63523;51.880;12.630;2023-07-31T08:54:19;4.82;;;1.23;;
74967;SDS011;63523;51.880;12.630;2023-07-31T08:56:45;5.57;;;1.10;;
74967;SDS011;63523;51.880;12.630;2023-07-31T08:59:11;4.73;;;1.27;;
74967;SDS011;63523;51.880;12.630;2023-07-31T09:01:40;4.72;;;1.20;;
74967;SDS011;63523;51.880;12.630;2023-07-31T09:04:11;4.72;;;1.30;;
74967;SDS011;63523;51.880;12.630;2023-07-31T09:06:38;4.85;;;1.50;;
74967;SDS011;63523;51.880;12.630;2023-07-31T09:09:04;5.25;;;1.20;;
74967;SDS011;63523;51.880;12.630;2023-07-31T09:11:29;5.03;;;1.30;;
74967;SDS011;63523;51.880;12.630;2023-07-31T09:13:55;5.43;;;1.27;;
74967;SDS011;63523;51.880;12.630;2023-07-31T09:16:28;5.97;;;1.42;;
74967;SDS011;63523;51.880;12.630;2023-07-31T09:18:57;4.73;;;1.13;;
74967;SDS011;63523;51.880;12.630;2023-07-31T09:21:23;4.15;;;1.13;;
74967;SDS011;63523;51.880;12.630;2023-07-31T09:23:50;6.63;;;1.23;;
74967;SDS011;63523;51.880;12.630;2023-07-31T09:26:32;6.22;;;1.40;;
74967;SDS011;63523;51.880;12.630;2023-07-31T09:28:59;3.60;;;1.02;;
74967;SDS011;63523;51.880;12.630;2023-07-31T09:31:38;3.97;;;0.93;;
74967;SDS011;63523;51.880;12.630;2023-07-31T09:34:07;4.15;;;1.20;;
74967;SDS011;63523;51.880;12.630;2023-07-31T09:36:39;4.80;;;1.10;;
74967;SDS011;63523;51.880;12.630;2023-07-31T09:39:05;4.18;;;1.10;;
74967;SDS011;63523;51.880;12.630;2023-07-31T09:41:38;4.45;;;0.98;;
74967;SDS011;63523;51.880;12.630;2023-07-31T09:44:05;4.53;;;1.35;;
74967;SDS011;63523;51.880;12.630;2023-07-31T09:46:30;4.40;;;1.13;;
74967;SDS011;63523;51.880;12.630;2023-07-31T09:49:06;4.22;;;1.10;;
74967;SDS011;63523;51.880;12.630;2023-07-31T09:51:39;3.70;;;1.13;;
74967;SDS011;63523;51.880;12.630;2023-07-31T09:54:09;4.93;;;1.10;;
74967;SDS011;63523;51.880;12.630;2023-07-31T09:56:47;5.22;;;1.30;;
74967;SDS011;63523;51.880;12.630;2023-07-31T09:59:19;3.60;;;1.17;;
74967;SDS011;63523;51.880;12.630;2023-07-31T10:01:46;3.85;;;1.10;;
74967;SDS011;63523;51.880;12.630;2023-07-31T10:04:12;4.03;;;1.17;;
74967;SDS011;63523;51.880;12.630;2023-07-31T10:06:38;4.85;;;1.00;;
74967;SDS011;63523;51.880;12.630;2023-07-31T10:09:05;4.05;;;1.15;;
74967;SDS011;63523;51.880;12.630;2023-07-31T10:11:38;4.82;;;1.30;;
74967;SDS011;63523;51.880;12.630;2023-07-31T10:14:07;5.65;;;0.90;;
74967;SDS011;63523;51.880;12.630;2023-07-31T10:16:34;4.67;;;1.30;;
74967;SDS011;63523;51.880;12.630;2023-07-31T10:19:00;5.07;;;0.90;;
74967;SDS011;63523;51.880;12.630;2023-07-31T10:21:26;5.95;;;1.20;;
74967;SDS011;63523;51.880;12.630;2023-07-31T10:23:52;3.92;;;0.70;;
74967;SDS011;63523;51.880;12.630;2023-07-31T10:26:18;4.72;;;0.77;;
74967;SDS011;63523;51.880;12.630;2023-07-31T10:28:45;3.43;;;0.80;;
74967;SDS011;63523;51.880;12.630;2023-07-31T10:31:12;4.85;;;0.80;;
74967;SDS011;63523;51.880;12.630;2023-07-31T10:33:38;4.03;;;0.68;;
74967;SDS011;63523;51.880;12.630;2023-07-31T10:36:17;3.55;;;0.57;;
74967;SDS011;63523;51.880;12.630;2023-07-31T10:38:44;3.35;;;0.85;;
74967;SDS011;63523;51.880;12.630;2023-07-31T10:41:10;3.80;;;0.67;;
74967;SDS011;63523;51.880;12.630;2023-07-31T10:43:38;5.60;;;1.20;;
74967;SDS011;63523;51.880;12.630;2023-07-31T10:46:07;4.85;;;1.10;;
74967;SDS011;63523;51.880;12.630;2023-07-31T10:48:38;4.03;;;1.00;;
74967;SDS011;63523;51.880;12.630;2023-07-31T10:51:07;4.35;;;1.20;;
74967;SDS011;63523;51.880;12.630;2023-07-31T10:53:34;5.25;;;1.10;;
74967;SDS011;63523;51.880;12.630;2023-07-31T10:56:01;5.93;;;1.20;;
74967;SDS011;63523;51.880;12.630;2023-07-31T10:58:28;5.80;;;1.10;;
74967;SDS011;63523;51.880;12.630;2023-07-31T11:00:57;4.07;;;1.02;;
74967;SDS011;63523;51.880;12.630;2023-07-31T11:03:25;4.00;;;1.13;;
74967;SDS011;63523;51.880;12.630;2023-07-31T11:08:27;4.22;;;1.13;;
74967;SDS011;63523;51.880;12.630;2023-07-31T11:15:54;6.23;;;1.50;;
74967;SDS011;63523;51.880;12.630;2023-07-31T11:18:19;5.18;;;1.15;;
74967;SDS011;63523;51.880;12.630;2023-07-31T11:20:45;3.90;;;0.90;;
74967;SDS011;63523;51.880;12.630;2023-07-31T11:23:10;4.77;;;1.33;;
74967;SDS011;63523;51.880;12.630;2023-07-31T11:25:37;6.30;;;1.15;;
74967;SDS011;63523;51.880;12.630;2023-07-31T11:28:04;5.90;;;1.30;;
74967;SDS011;63523;51.880;12.630;2023-07-31T11:30:31;5.38;;;1.73;;
74967;SDS011;63523;51.880;12.630;2023-07-31T11:32:57;5.30;;;1.10;;
74967;SDS011;63523;51.880;12.630;2023-07-31T11:35:22;4.60;;;1.35;;
74967;SDS011;63523;51.880;12.630;2023-07-31T11:37:48;5.03;;;1.50;;
74967;SDS011;63523;51.880;12.630;2023-07-31T11:40:14;5.53;;;1.10;;
74967;SDS011;63523;51.880;12.630;2023-07-31T11:42:40;4.43;;;1.30;;
74967;SDS011;63523;51.880;12.630;2023-07-31T11:45:06;5.93;;;1.50;;
74967;SDS011;63523;51.880;12.630;2023-07-31T11:47:33;4.95;;;1.48;;
74967;SDS011;63523;51.880;12.630;2023-07-31T11:50:00;3.55;;;0.95;;
74967;SDS011;63523;51.880;12.630;2023-07-31T11:52:27;4.85;;;1.35;;
74967;SDS011;63523;51.880;12.630;2023-07-31T11:54:55;4.20;;;1.40;;
74967;SDS011;63523;51.880;12.630;2023-07-31T11:57:21;4.85;;;1.42;;
74967;SDS011;63523;51.880;12.630;2023-07-31T11:59:47;7.63;;;1.75;;
74967;SDS011;63523;51.880;12.630;2023-07-31T12:02:13;4.38;;;1.30;;
74967;SDS011;63523;51.880;12.630;2023-07-31T12:04:39;5.57;;;1.47;;
74967;SDS011;63523;51.880;12.630;2023-07-31T12:07:04;4.80;;;1.40;;
74967;SDS011;63523;51.880;12.630;2023-07-31T12:09:30;4.72;;;1.55;;
74967;SDS011;63523;51.880;12.630;2023-07-31T12:11:55;3.73;;;1.47;;
74967;SDS011;63523;51.880;12.630;2023-07-31T12:14:21;4.67;;;1.70;;
74967;SDS011;63523;51.880;12.630;2023-07-31T12:20:00;5.20;;;1.50;;
74967;SDS011;63523;51.880;12.630;2023-07-31T12:22:44;4.13;;;1.52;;
74967;SDS011;63523;51.880;12.630;2023-07-31T12:27:40;4.65;;;1.45;;
74967;SDS011;63523;51.880;12.630;2023-07-31T12:32:55;6.40;;;1.60;;
74967;SDS011;63523;51.880;12.630;2023-07-31T12:35:20;4.47;;;1.47;;
74967;SDS011;63523;51.880;12.630;2023-07-31T12:37:45;4.80;;;1.40;;
74967;SDS011;63523;51.880;12.630;2023-07-31T12:40:11;4.17;;;1.30;;
74967;SDS011;63523;51.880;12.630;2023-07-31T12:42:37;5.32;;;1.40;;
74967;SDS011;63523;51.880;12.630;2023-07-31T12:45:03;5.73;;;1.37;;
74967;SDS011;63523;51.880;12.630;2023-07-31T12:47:28;5.55;;;1.60;;
74967;SDS011;63523;51.880;12.630;2023-07-31T12:49:54;5.93;;;1.85;;
74967;SDS011;63523;51.880;12.630;2023-07-31T12:52:20;4.50;;;1.43;;
74967;SDS011;63523;51.880;12.630;2023-07-31T12:54:45;5.93;;;1.43;;
74967;SDS011;63523;51.880;12.630;2023-07-31T12:57:11;4.37;;;1.40;;
74967;SDS011;63523;51.880;12.630;2023-07-31T12:59:36;4.30;;;1.27;;
74967;SDS011;63523;51.880;12.630;2023-07-31T13:02:01;6.13;;;1.40;;
74967;SDS011;63523;51.880;12.630;2023-07-31T13:04:27;5.17;;;1.53;;
74967;SDS011;63523;51.880;12.630;2023-07-31T13:06:52;5.10;;;1.50;;
74967;SDS011;63523;51.880;12.630;2023-07-31T13:09:17;4.97;;;1.50;;
74967;SDS011;63523;51.880;12.630;2023-07-31T13:11:43;5.37;;;1.90;;
74967;SDS011;63523;51.880;12.630;2023-07-31T13:14:08;5.03;;;1.43;;
74967;SDS011;63523;51.880;12.630;2023-07-31T13:16:33;4.90;;;1.40;;
74967;SDS011;63523;51.880;12.630;2023-07-31T13:18:59;5.77;;;1.60;;
74967;SDS011;63523;51.880;12.630;2023-07-31T13:21:24;6.17;;;1.40;;
74967;SDS011;63523;51.880;12.630;2023-07-31T13:23:49;5.10;;;1.30;;
74967;SDS011;63523;51.880;12.630;2023-07-31T13:26:15;5.60;;;1.50;;
74967;SDS011;63523;51.880;12.630;2023-07-31T13:28:40;4.60;;;1.20;;
74967;SDS011;63523;51.880;12.630;2023-07-31T13:31:05;5.80;;;1.60;;
74967;SDS011;63523;51.880;12.630;2023-07-31T13:33:31;3.80;;;1.20;;
74967;SDS011;63523;51.880;12.630;2023-07-31T13:35:56;5.63;;;1.60;;
74967;SDS011;63523;51.880;12.630;2023-07-31T13:38:21;5.50;;;1.40;;
74967;SDS011;63523;51.880;12.630;2023-07-31T13:40:46;5.03;;;1.40;;
74967;SDS011;63523;51.880;12.630;2023-07-31T13:43:12;5.90;;;1.53;;
74967;SDS011;63523;51.880;12.630;2023-07-31T13:45:37;5.63;;;1.50;;
74967;SDS011;63523;51.880;12.630;2023-07-31T13:48:02;5.47;;;1.63;;
74967;SDS011;63523;51.880;12.630;2023-07-31T13:50:28;5.07;;;1.42;;
74967;SDS011;63523;51.880;12.630;2023-07-31T13:52:54;5.23;;;1.70;;
74967;SDS011;63523;51.880;12.630;2023-07-31T13:55:19;4.70;;;1.55;;
74967;SDS011;63523;51.880;12.630;2023-07-31T13:57:45;5.00;;;1.60;;
74967;SDS011;63523;51.880;12.630;2023-07-31T14:00:11;4.33;;;1.40;;
74967;SDS011;63523;51.880;12.630;2023-07-31T14:02:37;4.25;;;1.50;;
74967;SDS011;63523;51.880;12.630;2023-07-31T14:05:02;4.83;;;1.53;;
74967;SDS011;63523;51.880;12.630;2023-07-31T14:07:28;4.68;;;1.70;;
74967;SDS011;63523;51.880;12.630;2023-07-31T14:09:53;7.70;;;1.70;;
74967;SDS011;63523;51.880;12.630;2023-07-31T14:12:18;4.43;;;1.50;;
74967;SDS011;63523;51.880;12.630;2023-07-31T14:14:43;4.57;;;1.47;;
74967;SDS011;63523;51.880;12.630;2023-07-31T14:17:09;6.73;;;1.90;;
74967;SDS011;63523;51.880;12.630;2023-07-31T14:19:34;4.80;;;1.60;;
74967;SDS011;63523;51.880;12.630;2023-07-31T14:22:00;5.70;;;1.80;;
74967;SDS011;63523;51.880;12.630;2023-07-31T14:24:25;6.47;;;2.07;;
74967;SDS011;63523;51.880;12.630;2023-07-31T14:26:50;4.47;;;1.57;;
74967;SDS011;63523;51.880;12.630;2023-07-31T14:29:16;5.17;;;1.67;;
74967;SDS011;63523;51.880;12.630;2023-07-31T14:31:41;6.20;;;1.70;;
74967;SDS011;63523;51.880;12.630;2023-07-31T14:34:06;5.20;;;1.60;;
74967;SDS011;63523;51.880;12.630;2023-07-31T14:36:31;6.28;;;1.65;;
74967;SDS011;63523;51.880;12.630;2023-07-31T14:38:57;8.70;;;1.70;;
74967;SDS011;63523;51.880;12.630;2023-07-31T14:41:22;6.33;;;1.63;;
74967;SDS011;63523;51.880;12.630;2023-07-31T14:43:47;4.33;;;1.33;;
74967;SDS011;63523;51.880;12.630;2023-07-31T14:46:13;4.73;;;1.23;;
74967;SDS011;63523;51.880;12.630;2023-07-31T14:48:39;4.30;;;1.40;;
74967;SDS011;63523;51.880;12.630;2023-07-31T14:51:04;5.70;;;1.80;;
74967;SDS011;63523;51.880;12.630;2023-07-31T14:53:30;3.90;;;1.03;;